Main page
METAR-TAF:

METAR-TAF

Airports :

Luxor International Airport

Luxor, Egypt

latitude: 25-40N, longitude: 032-42E, elevation: 93 m

Current weather observation

The report was made 42 minutes ago, at 07:00 UTC
Wind 2 kt from the North/Northwest
Temperature 29°C
Humidity 35%
Pressure 1013 hPa
Visibility 10 km or more
no clouds below 1500 m and no cumulonimbus

METAR: HELX 260700Z 33002KT CAVOK 29/12 Q1013 NOSIG

Time: 09:42 (07:42 UTC)

Forecast

The report was made 2 hours and 42 minutes ago, at 05:00 UTC
Forecast valid from 26 at 06 UTC to 27 at 12 UTC
Wind 10 kt from the Northwest
Visibility 10 km or more
no clouds below 1500 m and no cumulonimbus

TAF: HELX 260500Z 2606/2712 31010KT CAVOK

Weather observations and forecasts of more than 4000 airports (METAR and TAF reports).

The available stations are represented by yellow and red dots on the map.

Hover mouse over dot to see the name of the station.

Then click to see weather observations and forecasts.

To change the map : click on the green buttons with a black cross to zoom in, on the green button with a dash to zoom out, or on the green arrows for adjacent maps.


METAR-TAF: